createdAt,value
2022-09-22T00:00:10.591Z,5.90
2022-09-22T00:03:01.132Z,6.50
2022-09-22T00:05:31.521Z,6.80
2022-09-22T00:08:04.609Z,6.10
2022-09-22T00:10:36.641Z,7.60
2022-09-22T00:13:04.443Z,6.50
2022-09-22T00:15:36.294Z,6.90
2022-09-22T00:18:04.130Z,7.40
2022-09-22T00:20:31.812Z,6.40
2022-09-22T00:23:04.065Z,7.50
2022-09-22T00:25:36.028Z,6.70
2022-09-22T00:28:06.131Z,7.20
2022-09-22T00:30:45.612Z,6.60
2022-09-22T00:33:13.598Z,6.20
2022-09-22T00:35:44.076Z,6.80
2022-09-22T00:38:11.732Z,7.00
2022-09-22T00:40:42.123Z,6.10
2022-09-22T00:43:43.097Z,6.80
2022-09-22T00:46:32.242Z,6.60
2022-09-22T00:49:08.329Z,6.40
2022-09-22T00:51:43.954Z,5.80
2022-09-22T00:54:19.019Z,6.90
2022-09-22T00:57:06.643Z,6.60
2022-09-22T00:59:39.049Z,6.20
2022-09-22T01:02:10.944Z,7.50
2022-09-22T01:04:43.120Z,7.10
2022-09-22T01:07:15.410Z,6.30
2022-09-22T01:09:43.347Z,6.80
2022-09-22T01:12:15.181Z,6.40
2022-09-22T01:14:52.487Z,6.80
2022-09-22T01:17:38.665Z,6.60
2022-09-22T01:20:30.586Z,6.90
2022-09-22T01:23:35.282Z,6.50
2022-09-22T01:26:30.382Z,7.10
2022-09-22T01:29:38.022Z,7.00
2022-09-22T01:32:13.117Z,7.40
2022-09-22T01:35:13.322Z,6.90
2022-09-22T01:38:02.637Z,6.90
2022-09-22T01:40:53.234Z,7.80
2022-09-22T01:43:26.934Z,7.30
2022-09-22T01:46:01.257Z,8.40
2022-09-22T01:48:36.833Z,7.50
2022-09-22T01:51:22.355Z,7.70
2022-09-22T01:54:18.313Z,8.20
2022-09-22T01:56:56.749Z,8.50
2022-09-22T01:59:32.549Z,7.40
2022-09-22T02:02:37.966Z,8.50
2022-09-22T02:05:15.109Z,8.80
2022-09-22T02:07:50.113Z,9.20
2022-09-22T02:10:28.073Z,9.20
2022-09-22T02:12:56.031Z,8.30
2022-09-22T02:15:43.992Z,9.70
2022-09-22T02:18:25.228Z,8.50
2022-09-22T02:20:57.263Z,8.90
2022-09-22T02:23:25.812Z,9.00
2022-09-22T02:26:02.017Z,8.90
2022-09-22T02:28:37.895Z,8.40
2022-09-22T02:31:19.929Z,8.80
2022-09-22T02:33:56.559Z,9.30
2022-09-22T02:36:45.507Z,9.10
2022-09-22T02:39:30.431Z,10.00
2022-09-22T02:42:32.626Z,9.00
2022-09-22T02:45:09.547Z,8.90
2022-09-22T02:47:50.601Z,9.10
2022-09-22T02:50:27.148Z,9.40
2022-09-22T02:53:04.622Z,9.50
2022-09-22T02:55:32.876Z,9.20
2022-09-22T02:58:01.882Z,9.50
2022-09-22T03:00:37.078Z,9.60
2022-09-22T03:03:11.625Z,10.80
2022-09-22T03:05:43.840Z,10.20
2022-09-22T03:08:11.755Z,10.10
2022-09-22T03:10:45.028Z,10.30
2022-09-22T03:13:17.539Z,10.20
2022-09-22T03:15:49.849Z,10.20
2022-09-22T03:18:17.676Z,9.50
2022-09-22T03:20:47.202Z,9.30
2022-09-22T03:23:17.596Z,10.00
2022-09-22T03:25:45.284Z,9.20
2022-09-22T03:28:14.191Z,10.00
2022-09-22T03:30:48.490Z,10.30
2022-09-22T03:33:16.242Z,9.90
2022-09-22T03:35:48.598Z,10.80
2022-09-22T03:38:17.147Z,10.80
2022-09-22T03:40:54.256Z,11.10
2022-09-22T03:43:26.882Z,10.50
2022-09-22T03:46:05.310Z,11.40
2022-09-22T03:48:33.290Z,10.20
2022-09-22T03:51:01.029Z,10.30
2022-09-22T03:53:37.052Z,11.50
2022-09-22T03:56:13.115Z,10.20
2022-09-22T03:58:45.433Z,11.40
2022-09-22T04:01:13.813Z,11.80
2022-09-22T04:03:45.332Z,11.40
2022-09-22T04:06:17.512Z,11.30
2022-09-22T04:08:49.413Z,11.10
2022-09-22T04:11:17.137Z,12.40
2022-09-22T04:13:48.837Z,12.30
2022-09-22T04:16:21.605Z,12.70
2022-09-22T04:18:50.244Z,12.60
2022-09-22T04:21:18.184Z,12.30
2022-09-22T04:23:49.687Z,11.40
2022-09-22T04:26:17.754Z,12.50
2022-09-22T04:28:45.481Z,12.80
2022-09-22T04:31:13.242Z,13.00
2022-09-22T04:33:48.578Z,12.60
2022-09-22T04:36:16.491Z,13.40
2022-09-22T04:38:48.189Z,12.70
2022-09-22T04:41:15.878Z,13.30
2022-09-22T04:43:43.810Z,13.00
2022-09-22T04:46:14.033Z,13.90
2022-09-22T04:48:45.808Z,14.20
2022-09-22T04:51:17.809Z,13.70
2022-09-22T04:53:45.573Z,13.10
2022-09-22T04:56:15.199Z,13.10
2022-09-22T04:58:46.857Z,13.20
2022-09-22T05:01:14.671Z,13.80
2022-09-22T05:03:47.704Z,14.20
2022-09-22T05:06:15.650Z,16.00
2022-09-22T05:08:43.342Z,15.60
2022-09-22T05:11:14.957Z,14.50
2022-09-22T05:13:43.793Z,16.00
2022-09-22T05:16:14.278Z,14.30
2022-09-22T05:18:42.386Z,14.80
2022-09-22T05:21:14.439Z,14.40
2022-09-22T05:23:49.048Z,14.50
2022-09-22T05:26:17.095Z,14.90
2022-09-22T05:28:45.597Z,15.40
2022-09-22T05:31:14.396Z,15.20
2022-09-22T05:33:48.087Z,15.40
2022-09-22T05:36:19.745Z,14.30
2022-09-22T05:38:47.507Z,14.10
2022-09-22T05:41:15.489Z,13.90
2022-09-22T05:43:43.453Z,13.60
2022-09-22T05:46:11.751Z,13.80
2022-09-22T05:48:39.689Z,15.00
2022-09-22T05:51:07.535Z,13.80
2022-09-22T05:53:35.628Z,13.70
2022-09-22T05:56:03.422Z,13.10
2022-09-22T05:58:31.629Z,13.50
2022-09-22T06:00:59.415Z,13.80
2022-09-22T06:03:27.498Z,12.80
2022-09-22T06:05:55.289Z,13.90
2022-09-22T06:08:23.439Z,14.70
2022-09-22T06:10:51.534Z,13.90
2022-09-22T06:13:19.658Z,13.60
2022-09-22T06:15:48.886Z,14.10
2022-09-22T06:18:24.531Z,12.40
2022-09-22T06:20:56.293Z,12.70
2022-09-22T06:23:26.029Z,13.40
2022-09-22T06:25:59.674Z,13.30
2022-09-22T06:28:27.459Z,13.30
2022-09-22T06:30:58.953Z,14.20
2022-09-22T06:33:28.109Z,11.90
2022-09-22T06:35:58.251Z,13.50
2022-09-22T06:38:25.990Z,13.00
2022-09-22T06:40:59.202Z,14.10
2022-09-22T06:43:27.050Z,13.50
2022-09-22T06:45:59.678Z,12.20
2022-09-22T06:48:27.798Z,13.40
2022-09-22T06:50:55.873Z,13.80
2022-09-22T06:53:26.995Z,13.40
2022-09-22T06:55:56.105Z,12.90
2022-09-22T06:58:24.286Z,12.80
2022-09-22T07:00:53.953Z,12.60
2022-09-22T07:03:24.472Z,12.80
2022-09-22T07:05:54.404Z,12.20
2022-09-22T07:08:24.097Z,12.90
2022-09-22T07:11:04.296Z,12.80
2022-09-22T07:13:32.912Z,13.30
2022-09-22T07:16:02.689Z,12.70
2022-09-22T07:18:31.382Z,12.20
2022-09-22T07:21:08.223Z,12.70
2022-09-22T07:23:36.939Z,12.30
2022-09-22T07:26:07.083Z,11.60
2022-09-22T07:28:36.782Z,11.40
2022-09-22T07:31:07.584Z,11.10
2022-09-22T07:33:37.283Z,11.00
2022-09-22T07:36:12.167Z,11.00
2022-09-22T07:38:42.155Z,11.90
2022-09-22T07:41:15.653Z,11.00
2022-09-22T07:43:43.723Z,10.20
2022-09-22T07:46:13.440Z,10.40
2022-09-22T07:48:44.474Z,9.30
2022-09-22T07:51:21.813Z,9.30
2022-09-22T07:53:54.644Z,8.60
2022-09-22T07:56:29.268Z,7.70
2022-09-22T07:58:57.500Z,9.90
2022-09-22T08:01:31.531Z,8.30
2022-09-22T08:06:28.888Z,8.90
2022-09-22T08:08:57.813Z,7.90
2022-09-22T08:11:29.469Z,7.80
2022-09-22T08:14:02.668Z,8.20
2022-09-22T08:16:33.986Z,8.60
2022-09-22T08:19:10.769Z,7.80
2022-09-22T08:21:48.317Z,8.90
2022-09-22T08:24:23.095Z,8.10
2022-09-22T08:26:55.168Z,8.50
2022-09-22T08:29:24.849Z,7.80
2022-09-22T08:31:54.528Z,8.50
2022-09-22T08:34:23.480Z,7.70
2022-09-22T08:36:52.470Z,9.10
2022-09-22T08:39:20.509Z,8.90
2022-09-22T08:41:48.312Z,8.10
2022-09-22T08:44:23.148Z,8.30
2022-09-22T08:46:53.631Z,7.80
2022-09-22T08:49:57.061Z,8.00
2022-09-22T08:52:39.068Z,7.30
2022-09-22T08:55:20.237Z,7.20
2022-09-22T08:58:16.775Z,7.30
2022-09-22T09:00:56.849Z,7.50
2022-09-22T09:03:52.239Z,8.20
2022-09-22T09:06:39.664Z,7.00
2022-09-22T09:09:21.152Z,7.10
2022-09-22T09:12:22.294Z,8.10
2022-09-22T09:15:05.520Z,6.90
2022-09-22T09:17:37.583Z,7.50
2022-09-22T09:20:20.095Z,7.30
2022-09-22T09:22:56.462Z,7.50
2022-09-22T09:25:42.794Z,7.20
2022-09-22T09:28:24.185Z,7.30
2022-09-22T09:31:05.043Z,7.40
2022-09-22T09:33:46.584Z,7.60
2022-09-22T09:36:20.817Z,7.20
2022-09-22T09:38:56.996Z,7.80
2022-09-22T09:41:32.831Z,7.30
2022-09-22T09:44:03.460Z,7.10
2022-09-22T09:46:50.869Z,6.80
2022-09-22T09:49:21.412Z,7.60
2022-09-22T09:51:53.274Z,7.20
2022-09-22T09:54:23.596Z,7.00
2022-09-22T09:57:28.096Z,7.60
2022-09-22T10:00:32.479Z,6.90
2022-09-22T10:03:22.151Z,6.80
2022-09-22T10:06:06.418Z,6.90
2022-09-22T10:08:51.132Z,6.80
2022-09-22T10:11:32.862Z,6.60
2022-09-22T10:14:01.327Z,8.10
2022-09-22T10:16:33.641Z,6.00
2022-09-22T10:19:21.318Z,7.10
2022-09-22T10:21:49.758Z,6.20
2022-09-22T10:24:31.692Z,5.70
2022-09-22T10:27:02.564Z,5.90
2022-09-22T10:29:33.696Z,5.50
2022-09-22T10:32:06.541Z,5.90
2022-09-22T10:34:37.971Z,5.20
2022-09-22T10:37:10.837Z,5.60
2022-09-22T10:39:51.326Z,5.90
2022-09-22T10:42:23.457Z,6.00
2022-09-22T10:44:53.248Z,6.10
2022-09-22T10:47:26.702Z,5.80
2022-09-22T10:50:07.420Z,5.90
2022-09-22T10:52:55.977Z,6.00
2022-09-22T10:55:30.986Z,6.30
2022-09-22T10:58:04.868Z,6.60
2022-09-22T11:00:41.213Z,6.30
2022-09-22T11:03:27.533Z,6.00
2022-09-22T11:06:33.288Z,6.90
2022-09-22T11:09:36.462Z,6.30
2022-09-22T11:12:29.648Z,6.30
2022-09-22T11:15:14.541Z,6.60
2022-09-22T11:17:53.435Z,6.70
2022-09-22T11:20:33.994Z,6.90
2022-09-22T11:23:17.255Z,6.80
2022-09-22T11:26:12.683Z,7.70
2022-09-22T11:29:07.619Z,6.90
2022-09-22T11:32:06.087Z,6.70
2022-09-22T11:34:49.273Z,6.20
2022-09-22T11:37:32.675Z,6.40
2022-09-22T11:40:03.749Z,6.70
2022-09-22T11:42:44.481Z,5.80
2022-09-22T11:45:34.465Z,5.40
2022-09-22T11:48:40.733Z,6.40
2022-09-22T11:51:34.982Z,6.60
2022-09-22T11:54:47.223Z,7.00
2022-09-22T11:57:24.105Z,6.00
2022-09-22T11:59:58.487Z,7.10
2022-09-22T12:02:41.634Z,7.70
2022-09-22T12:05:36.443Z,7.70
2022-09-22T12:08:21.431Z,7.70
2022-09-22T12:10:51.558Z,7.30
2022-09-22T12:13:31.542Z,7.60
2022-09-22T12:16:19.641Z,7.20
2022-09-22T12:18:53.832Z,7.10
2022-09-22T12:21:46.251Z,6.40
2022-09-22T12:24:14.692Z,5.20
2022-09-22T12:26:46.557Z,4.90
2022-09-22T12:29:14.793Z,4.90
2022-09-22T12:31:49.534Z,5.70
2022-09-22T12:34:21.275Z,6.40
2022-09-22T12:36:53.032Z,6.00
2022-09-22T12:39:22.778Z,6.70
2022-09-22T12:41:58.033Z,7.30
2022-09-22T12:44:27.792Z,6.10
2022-09-22T12:47:02.076Z,5.80
2022-09-22T12:49:30.999Z,7.00
2022-09-22T12:51:59.720Z,6.10
2022-09-22T12:54:37.836Z,5.50
2022-09-22T12:57:23.269Z,4.90
2022-09-22T13:00:11.510Z,4.40
2022-09-22T13:02:46.442Z,4.00
2022-09-22T13:05:26.290Z,4.00
2022-09-22T13:07:55.913Z,3.60
2022-09-22T13:10:24.274Z,4.50
2022-09-22T13:13:01.877Z,4.30
2022-09-22T13:15:34.548Z,4.50
2022-09-22T13:18:02.767Z,5.00
2022-09-22T13:20:34.377Z,4.80
2022-09-22T13:23:13.301Z,4.90
2022-09-22T13:25:44.954Z,5.40
2022-09-22T13:28:22.246Z,5.30
2022-09-22T13:31:09.528Z,5.80
2022-09-22T13:33:37.740Z,5.60
2022-09-22T13:36:16.458Z,5.80
2022-09-22T13:38:51.390Z,6.30
2022-09-22T13:41:26.526Z,5.60
2022-09-22T13:44:08.220Z,5.40
2022-09-22T13:46:46.538Z,5.20
2022-09-22T13:49:31.454Z,4.90
2022-09-22T13:52:04.945Z,5.80
2022-09-22T13:57:07.074Z,4.70
2022-09-22T13:59:41.596Z,5.80
2022-09-22T14:02:13.468Z,5.60
2022-09-22T14:04:53.564Z,5.40
2022-09-22T14:07:23.634Z,5.40
2022-09-22T14:09:52.679Z,4.90
2022-09-22T14:12:21.410Z,6.00
2022-09-22T14:14:49.607Z,5.60
2022-09-22T14:17:24.655Z,5.80
2022-09-22T14:20:04.540Z,6.40
2022-09-22T14:22:40.441Z,5.90
2022-09-22T14:25:22.423Z,6.20
2022-09-22T14:27:55.643Z,5.70
2022-09-22T14:30:29.293Z,5.00
2022-09-22T14:33:02.356Z,6.10
2022-09-22T14:35:36.551Z,5.50
2022-09-22T14:38:15.869Z,5.50
2022-09-22T14:40:54.229Z,4.60
2022-09-22T14:43:42.582Z,4.60
2022-09-22T14:46:34.059Z,4.70
2022-09-22T14:49:36.243Z,4.70
2022-09-22T14:52:07.773Z,4.60
2022-09-22T14:54:36.432Z,4.40
2022-09-22T14:57:08.201Z,4.70
2022-09-22T14:59:57.454Z,3.80
2022-09-22T15:02:36.569Z,3.80
2022-09-22T15:05:05.526Z,3.70
2022-09-22T15:07:36.519Z,3.30
2022-09-22T15:10:20.465Z,3.20
2022-09-22T15:12:49.782Z,3.40
2022-09-22T15:15:19.844Z,2.90
2022-09-22T15:18:08.725Z,2.90
2022-09-22T15:20:47.875Z,3.30
2022-09-22T15:23:28.675Z,3.80
2022-09-22T15:25:57.183Z,4.10
2022-09-22T15:28:27.184Z,4.00
2022-09-22T15:30:55.174Z,4.40
2022-09-22T15:33:25.167Z,5.90
2022-09-22T15:35:57.125Z,6.50
2022-09-22T15:38:29.864Z,5.50
2022-09-22T15:41:01.512Z,5.50
2022-09-22T15:43:31.694Z,5.40
2022-09-22T15:46:03.259Z,5.60
2022-09-22T15:48:38.561Z,5.70
2022-09-22T15:51:16.570Z,5.90
2022-09-22T15:53:44.606Z,6.50
2022-09-22T15:56:20.940Z,5.70
2022-09-22T15:58:52.981Z,5.90
2022-09-22T16:01:20.890Z,6.20
2022-09-22T16:03:53.195Z,6.40
2022-09-22T16:06:23.510Z,5.80
2022-09-22T16:08:55.268Z,6.40
2022-09-22T16:11:31.106Z,6.40
2022-09-22T16:14:03.670Z,6.60
2022-09-22T16:16:36.940Z,8.50
2022-09-22T16:19:10.555Z,7.10
2022-09-22T16:21:49.530Z,6.20
2022-09-22T16:24:17.544Z,6.20
2022-09-22T16:26:47.108Z,6.10
2022-09-22T16:29:17.927Z,7.20
2022-09-22T16:31:47.031Z,6.30
2022-09-22T16:34:17.654Z,5.40
2022-09-22T16:36:47.681Z,5.70
2022-09-22T16:39:15.654Z,5.60
2022-09-22T16:41:47.027Z,5.80
2022-09-22T16:44:18.231Z,5.50
2022-09-22T16:46:46.233Z,6.30
2022-09-22T16:49:17.540Z,5.70
2022-09-22T16:51:49.757Z,6.10
2022-09-22T16:54:20.356Z,6.30
2022-09-22T16:56:51.006Z,7.30
2022-09-22T16:59:22.538Z,7.00
2022-09-22T17:01:52.349Z,7.50
2022-09-22T17:04:21.517Z,7.30
2022-09-22T17:06:54.700Z,7.30
2022-09-22T17:09:22.856Z,7.30
2022-09-22T17:11:54.965Z,8.30
2022-09-22T17:14:24.444Z,10.10
2022-09-22T17:16:56.839Z,10.70
2022-09-22T17:19:27.996Z,10.80
2022-09-22T17:21:59.229Z,11.30
2022-09-22T17:24:27.561Z,12.20
2022-09-22T17:26:59.899Z,11.80
2022-09-22T17:29:32.877Z,14.20
2022-09-22T17:32:05.647Z,12.30
2022-09-22T17:34:37.016Z,12.80
2022-09-22T17:37:07.935Z,13.40
2022-09-22T17:39:37.187Z,13.20
2022-09-22T17:42:06.698Z,16.90
2022-09-22T17:44:36.234Z,16.00
2022-09-22T17:47:25.811Z,11.80
2022-09-22T17:50:14.002Z,10.80
2022-09-22T17:53:01.581Z,10.40
2022-09-22T17:55:31.006Z,10.10
2022-09-22T17:58:01.613Z,10.00
2022-09-22T18:00:32.055Z,9.70
2022-09-22T18:03:00.247Z,8.40
2022-09-22T18:05:33.734Z,9.20
2022-09-22T18:08:04.745Z,9.10
2022-09-22T18:10:35.377Z,8.90
2022-09-22T18:13:06.137Z,10.40
2022-09-22T18:15:38.396Z,10.00
2022-09-22T18:18:07.900Z,8.30
2022-09-22T18:20:35.868Z,8.60
2022-09-22T18:23:07.338Z,8.00
2022-09-22T18:25:36.926Z,12.60
2022-09-22T18:28:08.379Z,22.20
2022-09-22T18:30:41.690Z,18.10
2022-09-22T18:33:11.150Z,14.80
2022-09-22T18:35:41.283Z,9.60
2022-09-22T18:38:12.360Z,8.40
2022-09-22T18:40:41.965Z,8.20
2022-09-22T18:43:10.895Z,7.70
2022-09-22T18:45:38.849Z,6.90
2022-09-22T18:48:09.836Z,7.20
2022-09-22T18:50:39.523Z,7.30
2022-09-22T18:53:07.468Z,6.40
2022-09-22T18:55:37.100Z,6.90
2022-09-22T18:58:05.046Z,6.70
2022-09-22T19:00:34.485Z,6.20
2022-09-22T19:03:03.668Z,5.90
2022-09-22T19:05:33.116Z,6.70
2022-09-22T19:08:03.497Z,6.90
2022-09-22T19:10:31.949Z,7.40
2022-09-22T19:13:00.731Z,8.50
2022-09-22T19:15:30.121Z,10.40
2022-09-22T19:17:58.250Z,10.90
2022-09-22T19:20:28.461Z,11.90
2022-09-22T19:22:57.020Z,11.90
2022-09-22T19:25:27.254Z,13.90
2022-09-22T19:27:55.372Z,15.40
2022-09-22T19:30:26.558Z,15.60
2022-09-22T19:32:56.343Z,14.80
2022-09-22T19:35:28.471Z,13.40
2022-09-22T19:37:57.989Z,13.10
2022-09-22T19:40:27.433Z,11.50
2022-09-22T19:42:56.265Z,11.10
2022-09-22T19:45:26.686Z,10.60
2022-09-22T19:47:58.615Z,10.20
2022-09-22T19:50:27.632Z,8.40
2022-09-22T19:52:56.744Z,8.90
2022-09-22T19:55:25.802Z,8.80
2022-09-22T19:57:56.740Z,8.60
2022-09-22T20:00:28.654Z,9.90
2022-09-22T20:03:01.379Z,9.30
2022-09-22T20:05:37.236Z,9.70
2022-09-22T20:08:08.365Z,10.40
2022-09-22T20:10:37.663Z,9.90
2022-09-22T20:13:25.621Z,10.30
2022-09-22T20:15:53.661Z,9.50
2022-09-22T20:18:22.042Z,9.40
2022-09-22T20:20:53.581Z,9.10
2022-09-22T20:23:22.016Z,8.30
2022-09-22T20:25:52.226Z,7.10
2022-09-22T20:28:22.407Z,7.50
2022-09-22T20:30:50.750Z,7.30
2022-09-22T20:33:24.187Z,6.40
2022-09-22T20:35:57.204Z,6.70
2022-09-22T20:38:25.570Z,6.80
2022-09-22T20:40:53.865Z,6.70
2022-09-22T20:43:22.602Z,6.70
2022-09-22T20:45:50.865Z,6.80
2022-09-22T20:48:19.638Z,6.60
2022-09-22T20:51:02.820Z,6.60
2022-09-22T20:53:37.471Z,6.80
2022-09-22T20:56:11.808Z,7.20
2022-09-22T20:58:46.827Z,7.20
2022-09-22T21:01:20.113Z,7.20
2022-09-22T21:03:50.876Z,6.50
2022-09-22T21:06:27.349Z,7.20
2022-09-22T21:09:13.406Z,6.40
2022-09-22T21:11:48.620Z,6.90
2022-09-22T21:14:16.415Z,6.20
2022-09-22T21:16:52.166Z,7.00
2022-09-22T21:19:22.097Z,6.30
2022-09-22T21:21:50.734Z,7.20
2022-09-22T21:24:18.376Z,6.40
2022-09-22T21:26:49.876Z,6.80
2022-09-22T21:29:17.670Z,6.50
2022-09-22T21:31:51.118Z,6.40
2022-09-22T21:34:18.936Z,7.20
2022-09-22T21:36:46.968Z,6.80
2022-09-22T21:39:19.551Z,6.70
2022-09-22T21:41:47.278Z,7.30
2022-09-22T21:44:15.178Z,7.10
2022-09-22T21:46:45.652Z,6.90
2022-09-22T21:49:16.043Z,7.30
2022-09-22T21:51:47.363Z,7.90
2022-09-22T21:54:23.170Z,7.90
2022-09-22T21:56:54.118Z,7.40
2022-09-22T21:59:21.851Z,7.20
2022-09-22T22:01:49.669Z,7.90
2022-09-22T22:04:20.793Z,7.80
2022-09-22T22:06:51.798Z,7.90
2022-09-22T22:09:24.173Z,7.90
2022-09-22T22:11:59.836Z,7.60
2022-09-22T22:14:35.706Z,7.60
2022-09-22T22:17:07.395Z,7.60
2022-09-22T22:19:36.740Z,7.50
2022-09-22T22:22:06.072Z,7.30
2022-09-22T22:24:43.445Z,8.10
2022-09-22T22:27:14.607Z,9.10
2022-09-22T22:29:43.944Z,7.30
2022-09-22T22:32:14.805Z,8.00
2022-09-22T22:34:42.490Z,7.70
2022-09-22T22:37:11.508Z,7.90
2022-09-22T22:39:41.145Z,8.10
2022-09-22T22:42:09.054Z,8.70
2022-09-22T22:44:37.007Z,8.50
2022-09-22T22:47:11.601Z,8.10
2022-09-22T22:49:40.101Z,7.80
2022-09-22T22:52:08.009Z,8.10
2022-09-22T22:54:37.344Z,7.90
2022-09-22T22:57:09.066Z,8.00
2022-09-22T22:59:36.936Z,8.20
2022-09-22T23:02:04.904Z,8.50
2022-09-22T23:04:36.289Z,7.90
2022-09-22T23:07:04.087Z,7.40
2022-09-22T23:09:33.076Z,8.20
2022-09-22T23:12:03.166Z,7.80
2022-09-22T23:14:31.141Z,7.90
2022-09-22T23:16:58.905Z,7.90
2022-09-22T23:19:26.934Z,8.60
2022-09-22T23:21:57.496Z,7.80
2022-09-22T23:24:25.298Z,8.60
2022-09-22T23:26:57.638Z,8.90
2022-09-22T23:29:25.546Z,9.00
2022-09-22T23:31:55.149Z,9.30
2022-09-22T23:34:27.781Z,9.50
2022-09-22T23:36:55.548Z,8.60
2022-09-22T23:39:23.467Z,9.20
2022-09-22T23:41:52.842Z,8.90
2022-09-22T23:44:23.681Z,9.70
2022-09-22T23:46:54.841Z,9.80
2022-09-22T23:49:22.723Z,9.50
2022-09-22T23:51:52.305Z,9.50
2022-09-22T23:54:20.010Z,9.20
2022-09-22T23:56:51.103Z,9.20
2022-09-22T23:59:18.761Z,9.80
